sensor_id;sensor_type;location;lat;lon;timestamp;temperature;humidity
7234;DHT22;3658;47.992;10.158;2022-08-26T00:00:49;22.40;60.60
7234;DHT22;3658;47.992;10.158;2022-08-26T00:03:18;22.40;60.50
7234;DHT22;3658;47.992;10.158;2022-08-26T00:05:45;22.40;60.50
7234;DHT22;3658;47.992;10.158;2022-08-26T00:08:14;22.40;60.50
7234;DHT22;3658;47.992;10.158;2022-08-26T00:10:41;22.40;60.60
7234;DHT22;3658;47.992;10.158;2022-08-26T00:13:09;22.40;60.50
7234;DHT22;3658;47.992;10.158;2022-08-26T00:15:36;22.40;60.50
7234;DHT22;3658;47.992;10.158;2022-08-26T00:18:04;22.40;60.50
7234;DHT22;3658;47.992;10.158;2022-08-26T00:20:33;22.40;60.50
7234;DHT22;3658;47.992;10.158;2022-08-26T00:23:00;22.40;60.50
7234;DHT22;3658;47.992;10.158;2022-08-26T00:25:28;22.40;60.50
7234;DHT22;3658;47.992;10.158;2022-08-26T00:27:55;22.40;60.50
7234;DHT22;3658;47.992;10.158;2022-08-26T00:30:25;22.40;60.50
7234;DHT22;3658;47.992;10.158;2022-08-26T00:32:53;22.40;60.40
7234;DHT22;3658;47.992;10.158;2022-08-26T00:35:20;22.40;60.50
7234;DHT22;3658;47.992;10.158;2022-08-26T00:37:49;22.40;60.50
7234;DHT22;3658;47.992;10.158;2022-08-26T00:40:19;22.40;60.50
7234;DHT22;3658;47.992;10.158;2022-08-26T00:42:46;22.40;60.50
7234;DHT22;3658;47.992;10.158;2022-08-26T00:45:15;22.40;60.40
7234;DHT22;3658;47.992;10.158;2022-08-26T00:47:44;22.40;60.50
7234;DHT22;3658;47.992;10.158;2022-08-26T00:50:18;22.40;60.50
7234;DHT22;3658;47.992;10.158;2022-08-26T00:52:46;22.40;60.50
7234;DHT22;3658;47.992;10.158;2022-08-26T00:55:17;22.40;60.40
7234;DHT22;3658;47.992;10.158;2022-08-26T00:57:45;22.40;61.20
7234;DHT22;3658;47.992;10.158;2022-08-26T01:00:18;22.40;60.40
7234;DHT22;3658;47.992;10.158;2022-08-26T01:02:45;22.40;60.50
7234;DHT22;3658;47.992;10.158;2022-08-26T01:05:14;22.40;60.50
7234;DHT22;3658;47.992;10.158;2022-08-26T01:07:42;22.40;60.50
7234;DHT22;3658;47.992;10.158;2022-08-26T01:10:12;22.40;60.40
7234;DHT22;3658;47.992;10.158;2022-08-26T01:12:45;22.40;60.40
7234;DHT22;3658;47.992;10.158;2022-08-26T01:15:16;22.40;60.40
7234;DHT22;3658;47.992;10.158;2022-08-26T01:17:45;22.40;60.40
7234;DHT22;3658;47.992;10.158;2022-08-26T01:20:21;22.40;60.40
7234;DHT22;3658;47.992;10.158;2022-08-26T01:22:55;22.40;60.40
7234;DHT22;3658;47.992;10.158;2022-08-26T01:25:24;22.40;60.40
7234;DHT22;3658;47.992;10.158;2022-08-26T01:27:53;22.40;60.40
7234;DHT22;3658;47.992;10.158;2022-08-26T01:30:22;22.40;60.40
7234;DHT22;3658;47.992;10.158;2022-08-26T01:32:50;22.40;60.40
7234;DHT22;3658;47.992;10.158;2022-08-26T01:35:18;22.40;60.40
7234;DHT22;3658;47.992;10.158;2022-08-26T01:37:47;22.40;60.40
7234;DHT22;3658;47.992;10.158;2022-08-26T01:40:20;22.40;60.40
7234;DHT22;3658;47.992;10.158;2022-08-26T01:42:49;22.40;60.40
7234;DHT22;3658;47.992;10.158;2022-08-26T01:45:18;22.40;60.40
7234;DHT22;3658;47.992;10.158;2022-08-26T01:47:46;22.40;60.40
7234;DHT22;3658;47.992;10.158;2022-08-26T01:50:18;22.40;60.40
7234;DHT22;3658;47.992;10.158;2022-08-26T01:52:49;22.40;60.40
7234;DHT22;3658;47.992;10.158;2022-08-26T01:55:18;22.40;60.40
7234;DHT22;3658;47.992;10.158;2022-08-26T01:57:48;22.40;60.40
7234;DHT22;3658;47.992;10.158;2022-08-26T02:00:17;22.40;60.40
7234;DHT22;3658;47.992;10.158;2022-08-26T02:02:45;22.40;60.40
7234;DHT22;3658;47.992;10.158;2022-08-26T02:05:16;22.40;60.40
7234;DHT22;3658;47.992;10.158;2022-08-26T02:07:44;22.40;60.40
7234;DHT22;3658;47.992;10.158;2022-08-26T02:10:13;22.40;60.40
7234;DHT22;3658;47.992;10.158;2022-08-26T02:12:42;22.40;60.40
7234;DHT22;3658;47.992;10.158;2022-08-26T02:15:11;22.40;60.30
7234;DHT22;3658;47.992;10.158;2022-08-26T02:17:41;22.40;60.40
7234;DHT22;3658;47.992;10.158;2022-08-26T02:20:12;22.40;60.40
7234;DHT22;3658;47.992;10.158;2022-08-26T02:22:41;22.40;60.40
7234;DHT22;3658;47.992;10.158;2022-08-26T02:25:12;22.40;60.40
7234;DHT22;3658;47.992;10.158;2022-08-26T02:27:45;22.40;60.40
7234;DHT22;3658;47.992;10.158;2022-08-26T02:30:16;22.40;60.40
7234;DHT22;3658;47.992;10.158;2022-08-26T02:32:44;22.40;60.40
7234;DHT22;3658;47.992;10.158;2022-08-26T02:35:13;22.40;60.40
7234;DHT22;3658;47.992;10.158;2022-08-26T02:37:41;22.40;60.40
7234;DHT22;3658;47.992;10.158;2022-08-26T02:40:10;22.40;60.40
7234;DHT22;3658;47.992;10.158;2022-08-26T02:42:37;22.40;60.40
7234;DHT22;3658;47.992;10.158;2022-08-26T02:45:07;22.40;60.30
7234;DHT22;3658;47.992;10.158;2022-08-26T02:47:35;22.40;60.30
7234;DHT22;3658;47.992;10.158;2022-08-26T02:50:03;22.40;60.40
7234;DHT22;3658;47.992;10.158;2022-08-26T02:52:30;22.40;60.30
7234;DHT22;3658;47.992;10.158;2022-08-26T02:54:57;22.40;60.30
7234;DHT22;3658;47.992;10.158;2022-08-26T02:57:24;22.40;60.30
7234;DHT22;3658;47.992;10.158;2022-08-26T02:59:51;22.40;60.30
7234;DHT22;3658;47.992;10.158;2022-08-26T03:02:19;22.40;60.30
7234;DHT22;3658;47.992;10.158;2022-08-26T03:04:46;22.40;60.30
7234;DHT22;3658;47.992;10.158;2022-08-26T03:07:13;22.40;60.30
7234;DHT22;3658;47.992;10.158;2022-08-26T03:09:40;22.40;60.30
7234;DHT22;3658;47.992;10.158;2022-08-26T03:12:07;22.40;60.30
7234;DHT22;3658;47.992;10.158;2022-08-26T03:14:34;22.40;60.30
7234;DHT22;3658;47.992;10.158;2022-08-26T03:17:02;22.40;60.30
7234;DHT22;3658;47.992;10.158;2022-08-26T03:19:30;22.40;60.30
7234;DHT22;3658;47.992;10.158;2022-08-26T03:21:58;22.40;60.30
7234;DHT22;3658;47.992;10.158;2022-08-26T03:24:25;22.40;60.30
7234;DHT22;3658;47.992;10.158;2022-08-26T03:26:52;22.40;60.30
7234;DHT22;3658;47.992;10.158;2022-08-26T03:29:19;22.40;60.30
7234;DHT22;3658;47.992;10.158;2022-08-26T03:32:18;22.40;60.30
7234;DHT22;3658;47.992;10.158;2022-08-26T03:34:47;22.40;60.30
7234;DHT22;3658;47.992;10.158;2022-08-26T03:37:14;22.40;60.40
7234;DHT22;3658;47.992;10.158;2022-08-26T03:39:41;22.40;60.30
7234;DHT22;3658;47.992;10.158;2022-08-26T03:42:08;22.40;60.30
7234;DHT22;3658;47.992;10.158;2022-08-26T03:44:35;22.40;60.30
7234;DHT22;3658;47.992;10.158;2022-08-26T03:47:03;22.40;60.30
7234;DHT22;3658;47.992;10.158;2022-08-26T03:49:32;22.40;60.30
7234;DHT22;3658;47.992;10.158;2022-08-26T03:52:02;22.40;60.30
7234;DHT22;3658;47.992;10.158;2022-08-26T03:54:30;22.40;60.30
7234;DHT22;3658;47.992;10.158;2022-08-26T03:56:57;22.40;60.30
7234;DHT22;3658;47.992;10.158;2022-08-26T03:59:24;22.40;60.30
7234;DHT22;3658;47.992;10.158;2022-08-26T04:01:51;22.40;60.30
7234;DHT22;3658;47.992;10.158;2022-08-26T04:04:18;22.40;60.30
7234;DHT22;3658;47.992;10.158;2022-08-26T04:06:45;22.40;60.30
7234;DHT22;3658;47.992;10.158;2022-08-26T04:09:17;22.40;60.30
7234;DHT22;3658;47.992;10.158;2022-08-26T04:11:45;22.40;60.30
7234;DHT22;3658;47.992;10.158;2022-08-26T04:14:14;22.40;60.30
7234;DHT22;3658;47.992;10.158;2022-08-26T04:16:42;22.40;60.30
7234;DHT22;3658;47.992;10.158;2022-08-26T04:19:11;22.40;60.30
7234;DHT22;3658;47.992;10.158;2022-08-26T04:21:39;22.40;60.20
7234;DHT22;3658;47.992;10.158;2022-08-26T04:24:08;22.40;60.20
7234;DHT22;3658;47.992;10.158;2022-08-26T04:26:37;22.40;60.30
7234;DHT22;3658;47.992;10.158;2022-08-26T04:29:06;22.40;60.30
7234;DHT22;3658;47.992;10.158;2022-08-26T04:31:35;22.40;60.30
7234;DHT22;3658;47.992;10.158;2022-08-26T04:34:03;22.40;60.30
7234;DHT22;3658;47.992;10.158;2022-08-26T04:36:31;22.40;60.30
7234;DHT22;3658;47.992;10.158;2022-08-26T04:38:59;22.40;60.30
7234;DHT22;3658;47.992;10.158;2022-08-26T04:41:27;22.40;60.20
7234;DHT22;3658;47.992;10.158;2022-08-26T04:43:56;22.40;60.20
7234;DHT22;3658;47.992;10.158;2022-08-26T04:46:24;22.40;60.20
7234;DHT22;3658;47.992;10.158;2022-08-26T04:48:52;22.40;60.20
7234;DHT22;3658;47.992;10.158;2022-08-26T04:51:19;22.40;60.20
7234;DHT22;3658;47.992;10.158;2022-08-26T04:53:52;22.40;60.20
7234;DHT22;3658;47.992;10.158;2022-08-26T04:56:22;22.40;60.20
7234;DHT22;3658;47.992;10.158;2022-08-26T04:58:49;22.40;60.20
7234;DHT22;3658;47.992;10.158;2022-08-26T05:01:18;22.40;60.20
7234;DHT22;3658;47.992;10.158;2022-08-26T05:03:45;22.40;60.20
7234;DHT22;3658;47.992;10.158;2022-08-26T05:06:13;22.40;60.20
7234;DHT22;3658;47.992;10.158;2022-08-26T05:08:40;22.40;60.20
7234;DHT22;3658;47.992;10.158;2022-08-26T05:11:07;22.40;60.20
7234;DHT22;3658;47.992;10.158;2022-08-26T05:13:35;22.40;60.20
7234;DHT22;3658;47.992;10.158;2022-08-26T05:16:05;22.40;60.20
7234;DHT22;3658;47.992;10.158;2022-08-26T05:18:34;22.40;60.20
7234;DHT22;3658;47.992;10.158;2022-08-26T05:21:02;22.40;60.20
7234;DHT22;3658;47.992;10.158;2022-08-26T05:23:30;22.40;60.20
7234;DHT22;3658;47.992;10.158;2022-08-26T05:25:58;22.40;60.20
7234;DHT22;3658;47.992;10.158;2022-08-26T05:28:27;22.40;60.20
7234;DHT22;3658;47.992;10.158;2022-08-26T05:30:55;22.40;60.20
7234;DHT22;3658;47.992;10.158;2022-08-26T05:33:22;22.40;60.20
7234;DHT22;3658;47.992;10.158;2022-08-26T05:35:51;22.40;60.10
7234;DHT22;3658;47.992;10.158;2022-08-26T05:38:20;22.40;60.10
7234;DHT22;3658;47.992;10.158;2022-08-26T05:40:49;22.40;60.20
7234;DHT22;3658;47.992;10.158;2022-08-26T05:43:17;22.40;60.10
7234;DHT22;3658;47.992;10.158;2022-08-26T05:45:45;22.40;60.10
7234;DHT22;3658;47.992;10.158;2022-08-26T05:48:13;22.40;60.20
7234;DHT22;3658;47.992;10.158;2022-08-26T05:50:42;22.40;60.10
7234;DHT22;3658;47.992;10.158;2022-08-26T05:53:12;22.40;60.10
7234;DHT22;3658;47.992;10.158;2022-08-26T05:55:44;22.40;60.10
7234;DHT22;3658;47.992;10.158;2022-08-26T05:58:11;22.40;60.10
7234;DHT22;3658;47.992;10.158;2022-08-26T06:00:39;22.40;60.10
7234;DHT22;3658;47.992;10.158;2022-08-26T06:03:06;22.40;60.10
7234;DHT22;3658;47.992;10.158;2022-08-26T06:05:37;22.40;60.10
7234;DHT22;3658;47.992;10.158;2022-08-26T06:08:04;22.40;60.10
7234;DHT22;3658;47.992;10.158;2022-08-26T06:10:44;22.50;60.30
7234;DHT22;3658;47.992;10.158;2022-08-26T06:13:12;22.40;60.10
7234;DHT22;3658;47.992;10.158;2022-08-26T06:15:40;22.40;60.10
7234;DHT22;3658;47.992;10.158;2022-08-26T06:18:08;22.50;60.20
7234;DHT22;3658;47.992;10.158;2022-08-26T06:20:35;22.50;60.20
7234;DHT22;3658;47.992;10.158;2022-08-26T06:23:08;22.50;60.20
7234;DHT22;3658;47.992;10.158;2022-08-26T06:25:54;22.50;60.20
7234;DHT22;3658;47.992;10.158;2022-08-26T06:28:21;22.50;60.20
7234;DHT22;3658;47.992;10.158;2022-08-26T06:30:49;22.50;60.20
7234;DHT22;3658;47.992;10.158;2022-08-26T06:33:16;22.50;60.20
7234;DHT22;3658;47.992;10.158;2022-08-26T06:35:43;22.50;60.20
7234;DHT22;3658;47.992;10.158;2022-08-26T06:38:11;22.50;60.20
7234;DHT22;3658;47.992;10.158;2022-08-26T06:40:40;22.50;60.20
7234;DHT22;3658;47.992;10.158;2022-08-26T06:43:10;22.50;60.20
7234;DHT22;3658;47.992;10.158;2022-08-26T06:45:37;22.50;60.20
7234;DHT22;3658;47.992;10.158;2022-08-26T06:48:05;22.50;60.20
7234;DHT22;3658;47.992;10.158;2022-08-26T06:50:32;22.50;60.20
7234;DHT22;3658;47.992;10.158;2022-08-26T06:52:59;22.50;60.20
7234;DHT22;3658;47.992;10.158;2022-08-26T06:55:26;22.50;60.20
7234;DHT22;3658;47.992;10.158;2022-08-26T06:57:53;22.50;60.20
7234;DHT22;3658;47.992;10.158;2022-08-26T07:00:21;22.50;60.20
7234;DHT22;3658;47.992;10.158;2022-08-26T07:02:49;22.50;60.20
7234;DHT22;3658;47.992;10.158;2022-08-26T07:05:16;22.50;60.20
7234;DHT22;3658;47.992;10.158;2022-08-26T07:07:43;22.50;60.20
7234;DHT22;3658;47.992;10.158;2022-08-26T07:10:10;22.50;60.20
7234;DHT22;3658;47.992;10.158;2022-08-26T07:12:37;22.50;60.20
7234;DHT22;3658;47.992;10.158;2022-08-26T07:15:04;22.50;61.00
7234;DHT22;3658;47.992;10.158;2022-08-26T07:17:33;22.50;60.30
7234;DHT22;3658;47.992;10.158;2022-08-26T07:20:00;22.50;60.20
7234;DHT22;3658;47.992;10.158;2022-08-26T07:22:27;22.50;60.30
7234;DHT22;3658;47.992;10.158;2022-08-26T07:24:54;22.50;60.20
7234;DHT22;3658;47.992;10.158;2022-08-26T07:27:22;22.50;60.30
7234;DHT22;3658;47.992;10.158;2022-08-26T07:29:49;22.50;60.30
7234;DHT22;3658;47.992;10.158;2022-08-26T07:32:18;22.50;60.30
7234;DHT22;3658;47.992;10.158;2022-08-26T07:34:47;22.50;60.30
7234;DHT22;3658;47.992;10.158;2022-08-26T07:37:14;22.50;60.30
7234;DHT22;3658;47.992;10.158;2022-08-26T07:39:42;22.50;60.30
7234;DHT22;3658;47.992;10.158;2022-08-26T07:42:11;22.50;60.30
7234;DHT22;3658;47.992;10.158;2022-08-26T07:44:40;22.50;60.30
7234;DHT22;3658;47.992;10.158;2022-08-26T07:47:08;22.50;60.30
7234;DHT22;3658;47.992;10.158;2022-08-26T07:49:35;22.50;60.30
7234;DHT22;3658;47.992;10.158;2022-08-26T07:52:04;22.50;60.30
7234;DHT22;3658;47.992;10.158;2022-08-26T07:54:31;22.50;60.30
7234;DHT22;3658;47.992;10.158;2022-08-26T07:56:58;22.50;61.10
7234;DHT22;3658;47.992;10.158;2022-08-26T07:59:26;22.50;60.30
7234;DHT22;3658;47.992;10.158;2022-08-26T08:01:53;22.50;60.30
7234;DHT22;3658;47.992;10.158;2022-08-26T08:04:23;22.50;60.30
7234;DHT22;3658;47.992;10.158;2022-08-26T08:06:50;22.50;60.30
7234;DHT22;3658;47.992;10.158;2022-08-26T08:09:19;22.50;60.40
7234;DHT22;3658;47.992;10.158;2022-08-26T08:11:46;22.50;60.40
7234;DHT22;3658;47.992;10.158;2022-08-26T08:14:14;22.50;60.40
7234;DHT22;3658;47.992;10.158;2022-08-26T08:16:42;22.50;60.40
7234;DHT22;3658;47.992;10.158;2022-08-26T08:19:09;22.50;60.50
7234;DHT22;3658;47.992;10.158;2022-08-26T08:21:36;22.50;60.40
7234;DHT22;3658;47.992;10.158;2022-08-26T08:24:05;22.50;60.40
7234;DHT22;3658;47.992;10.158;2022-08-26T08:26:34;22.50;60.50
7234;DHT22;3658;47.992;10.158;2022-08-26T08:29:01;22.50;60.40
7234;DHT22;3658;47.992;10.158;2022-08-26T08:31:30;22.50;60.40
7234;DHT22;3658;47.992;10.158;2022-08-26T08:33:57;22.50;60.40
7234;DHT22;3658;47.992;10.158;2022-08-26T08:36:24;22.50;60.40
7234;DHT22;3658;47.992;10.158;2022-08-26T08:38:51;22.50;60.40
7234;DHT22;3658;47.992;10.158;2022-08-26T08:41:33;22.50;60.40
7234;DHT22;3658;47.992;10.158;2022-08-26T08:44:09;22.50;60.40
7234;DHT22;3658;47.992;10.158;2022-08-26T08:46:39;22.50;60.50
7234;DHT22;3658;47.992;10.158;2022-08-26T08:49:08;22.60;60.50
7234;DHT22;3658;47.992;10.158;2022-08-26T08:51:40;22.50;60.50
7234;DHT22;3658;47.992;10.158;2022-08-26T08:54:10;22.50;60.50
7234;DHT22;3658;47.992;10.158;2022-08-26T08:56:40;22.50;60.50
7234;DHT22;3658;47.992;10.158;2022-08-26T08:59:15;22.50;60.50
7234;DHT22;3658;47.992;10.158;2022-08-26T09:01:53;22.50;60.50
7234;DHT22;3658;47.992;10.158;2022-08-26T09:04:59;22.50;60.50
7234;DHT22;3658;47.992;10.158;2022-08-26T09:07:32;22.50;60.50
7234;DHT22;3658;47.992;10.158;2022-08-26T09:10:05;22.50;60.50
7234;DHT22;3658;47.992;10.158;2022-08-26T09:12:36;22.50;60.50
7234;DHT22;3658;47.992;10.158;2022-08-26T09:15:10;22.50;60.50
7234;DHT22;3658;47.992;10.158;2022-08-26T09:17:46;22.50;60.50
7234;DHT22;3658;47.992;10.158;2022-08-26T09:20:20;22.50;60.60
7234;DHT22;3658;47.992;10.158;2022-08-26T09:22:51;22.50;60.60
7234;DHT22;3658;47.992;10.158;2022-08-26T09:25:18;22.60;60.60
7234;DHT22;3658;47.992;10.158;2022-08-26T09:27:46;22.60;60.70
7234;DHT22;3658;47.992;10.158;2022-08-26T09:30:22;22.60;60.70
7234;DHT22;3658;47.992;10.158;2022-08-26T09:32:58;22.60;60.70
7234;DHT22;3658;47.992;10.158;2022-08-26T09:35:27;22.60;60.70
7234;DHT22;3658;47.992;10.158;2022-08-26T09:37:55;22.60;60.70
7234;DHT22;3658;47.992;10.158;2022-08-26T09:40:29;22.60;60.70
7234;DHT22;3658;47.992;10.158;2022-08-26T09:43:11;22.60;60.70
7234;DHT22;3658;47.992;10.158;2022-08-26T09:45:43;22.60;60.70
7234;DHT22;3658;47.992;10.158;2022-08-26T09:48:11;22.60;60.80
7234;DHT22;3658;47.992;10.158;2022-08-26T09:50:53;22.60;60.70
7234;DHT22;3658;47.992;10.158;2022-08-26T09:53:21;22.60;60.80
7234;DHT22;3658;47.992;10.158;2022-08-26T09:55:52;22.60;60.70
7234;DHT22;3658;47.992;10.158;2022-08-26T09:58:37;22.60;60.70
7234;DHT22;3658;47.992;10.158;2022-08-26T10:01:08;22.60;60.80
7234;DHT22;3658;47.992;10.158;2022-08-26T10:03:40;22.60;60.80
7234;DHT22;3658;47.992;10.158;2022-08-26T10:06:22;22.60;60.70
7234;DHT22;3658;47.992;10.158;2022-08-26T10:08:53;22.60;60.80
7234;DHT22;3658;47.992;10.158;2022-08-26T10:11:25;22.60;60.80
7234;DHT22;3658;47.992;10.158;2022-08-26T10:14:00;22.60;60.80
7234;DHT22;3658;47.992;10.158;2022-08-26T10:16:33;22.60;61.50
7234;DHT22;3658;47.992;10.158;2022-08-26T10:19:07;22.60;60.80
7234;DHT22;3658;47.992;10.158;2022-08-26T10:21:37;22.60;60.80
7234;DHT22;3658;47.992;10.158;2022-08-26T10:24:08;22.60;60.80
7234;DHT22;3658;47.992;10.158;2022-08-26T10:26:40;22.60;60.90
7234;DHT22;3658;47.992;10.158;2022-08-26T10:29:12;22.60;60.80
7234;DHT22;3658;47.992;10.158;2022-08-26T10:31:48;22.60;60.90
7234;DHT22;3658;47.992;10.158;2022-08-26T10:34:16;22.60;60.80
7234;DHT22;3658;47.992;10.158;2022-08-26T10:36:52;22.60;60.80
7234;DHT22;3658;47.992;10.158;2022-08-26T10:39:25;22.60;60.80
7234;DHT22;3658;47.992;10.158;2022-08-26T10:41:58;22.60;60.80
7234;DHT22;3658;47.992;10.158;2022-08-26T10:44:29;22.60;60.90
7234;DHT22;3658;47.992;10.158;2022-08-26T10:47:02;22.60;60.90
7234;DHT22;3658;47.992;10.158;2022-08-26T10:49:35;22.60;60.90
7234;DHT22;3658;47.992;10.158;2022-08-26T10:52:06;22.60;60.90
7234;DHT22;3658;47.992;10.158;2022-08-26T10:54:39;22.60;60.90
7234;DHT22;3658;47.992;10.158;2022-08-26T10:57:14;22.60;60.90
7234;DHT22;3658;47.992;10.158;2022-08-26T10:59:51;22.60;60.80
7234;DHT22;3658;47.992;10.158;2022-08-26T11:02:25;22.60;60.80
7234;DHT22;3658;47.992;10.158;2022-08-26T11:04:56;22.60;60.90
7234;DHT22;3658;47.992;10.158;2022-08-26T11:07:36;22.60;60.90
7234;DHT22;3658;47.992;10.158;2022-08-26T11:10:08;22.60;60.90
7234;DHT22;3658;47.992;10.158;2022-08-26T11:12:55;22.60;60.90
7234;DHT22;3658;47.992;10.158;2022-08-26T11:18:41;22.60;60.90
7234;DHT22;3658;47.992;10.158;2022-08-26T11:24:44;22.60;60.80
7234;DHT22;3658;47.992;10.158;2022-08-26T11:27:50;22.60;60.80
7234;DHT22;3658;47.992;10.158;2022-08-26T11:30:47;22.60;60.80
7234;DHT22;3658;47.992;10.158;2022-08-26T11:36:56;22.60;60.80
7234;DHT22;3658;47.992;10.158;2022-08-26T11:39:44;22.60;60.80
7234;DHT22;3658;47.992;10.158;2022-08-26T11:42:21;22.60;60.80
7234;DHT22;3658;47.992;10.158;2022-08-26T11:44:50;22.60;60.80
7234;DHT22;3658;47.992;10.158;2022-08-26T11:47:25;22.60;60.80
7234;DHT22;3658;47.992;10.158;2022-08-26T11:50:06;22.60;60.80
7234;DHT22;3658;47.992;10.158;2022-08-26T11:52:34;22.60;60.80
7234;DHT22;3658;47.992;10.158;2022-08-26T11:55:04;22.60;60.80
7234;DHT22;3658;47.992;10.158;2022-08-26T11:57:33;22.60;60.70
7234;DHT22;3658;47.992;10.158;2022-08-26T12:00:02;22.60;60.70
7234;DHT22;3658;47.992;10.158;2022-08-26T12:02:30;22.60;60.70
7234;DHT22;3658;47.992;10.158;2022-08-26T12:04:58;22.60;60.80
7234;DHT22;3658;47.992;10.158;2022-08-26T12:07:27;22.60;60.70
7234;DHT22;3658;47.992;10.158;2022-08-26T12:09:57;22.60;61.50
7234;DHT22;3658;47.992;10.158;2022-08-26T12:12:27;22.60;60.80
7234;DHT22;3658;47.992;10.158;2022-08-26T12:15:12;22.60;60.70
7234;DHT22;3658;47.992;10.158;2022-08-26T12:17:40;22.60;60.80
7234;DHT22;3658;47.992;10.158;2022-08-26T12:20:18;22.60;60.80
7234;DHT22;3658;47.992;10.158;2022-08-26T12:22:45;22.60;60.80
7234;DHT22;3658;47.992;10.158;2022-08-26T12:25:22;22.60;60.80
7234;DHT22;3658;47.992;10.158;2022-08-26T12:27:49;22.60;60.70
7234;DHT22;3658;47.992;10.158;2022-08-26T12:30:18;22.70;60.80
7234;DHT22;3658;47.992;10.158;2022-08-26T12:32:48;22.70;60.80
7234;DHT22;3658;47.992;10.158;2022-08-26T12:35:18;22.70;60.80
7234;DHT22;3658;47.992;10.158;2022-08-26T12:37:47;22.70;60.80
7234;DHT22;3658;47.992;10.158;2022-08-26T12:40:30;22.70;60.80
7234;DHT22;3658;47.992;10.158;2022-08-26T12:43:00;22.70;60.80
7234;DHT22;3658;47.992;10.158;2022-08-26T12:45:28;22.70;60.80
7234;DHT22;3658;47.992;10.158;2022-08-26T12:47:58;22.70;60.80
7234;DHT22;3658;47.992;10.158;2022-08-26T12:50:28;22.70;60.80
7234;DHT22;3658;47.992;10.158;2022-08-26T12:52:58;22.70;60.80
7234;DHT22;3658;47.992;10.158;2022-08-26T12:55:36;22.70;60.90
7234;DHT22;3658;47.992;10.158;2022-08-26T12:58:21;22.70;60.80
7234;DHT22;3658;47.992;10.158;2022-08-26T13:00:49;22.70;60.80
7234;DHT22;3658;47.992;10.158;2022-08-26T13:03:36;22.70;60.90
7234;DHT22;3658;47.992;10.158;2022-08-26T13:06:13;22.70;60.80
7234;DHT22;3658;47.992;10.158;2022-08-26T13:08:41;22.70;60.80
7234;DHT22;3658;47.992;10.158;2022-08-26T13:11:12;22.70;60.80
7234;DHT22;3658;47.992;10.158;2022-08-26T13:13:40;22.70;60.80
7234;DHT22;3658;47.992;10.158;2022-08-26T13:16:07;22.70;60.90
7234;DHT22;3658;47.992;10.158;2022-08-26T13:18:34;22.70;60.80
7234;DHT22;3658;47.992;10.158;2022-08-26T13:21:08;22.70;60.80
7234;DHT22;3658;47.992;10.158;2022-08-26T13:23:35;22.70;60.80
7234;DHT22;3658;47.992;10.158;2022-08-26T13:26:02;22.70;60.80
7234;DHT22;3658;47.992;10.158;2022-08-26T13:28:30;22.70;60.90
7234;DHT22;3658;47.992;10.158;2022-08-26T13:30:57;22.70;60.80
7234;DHT22;3658;47.992;10.158;2022-08-26T13:33:24;22.70;60.80
7234;DHT22;3658;47.992;10.158;2022-08-26T13:35:52;22.70;60.80
7234;DHT22;3658;47.992;10.158;2022-08-26T13:38:19;22.70;60.80
7234;DHT22;3658;47.992;10.158;2022-08-26T13:40:46;22.70;60.80
7234;DHT22;3658;47.992;10.158;2022-08-26T13:43:13;22.70;60.80
7234;DHT22;3658;47.992;10.158;2022-08-26T13:45:42;22.70;60.80
7234;DHT22;3658;47.992;10.158;2022-08-26T13:48:10;22.70;60.80
7234;DHT22;3658;47.992;10.158;2022-08-26T13:50:37;22.70;60.80
7234;DHT22;3658;47.992;10.158;2022-08-26T13:53:04;22.70;60.80
7234;DHT22;3658;47.992;10.158;2022-08-26T13:55:30;22.70;60.80
7234;DHT22;3658;47.992;10.158;2022-08-26T13:57:58;22.70;60.80
7234;DHT22;3658;47.992;10.158;2022-08-26T14:00:25;22.70;60.90
7234;DHT22;3658;47.992;10.158;2022-08-26T14:02:53;22.70;60.80
7234;DHT22;3658;47.992;10.158;2022-08-26T14:05:20;22.70;60.80
7234;DHT22;3658;47.992;10.158;2022-08-26T14:07:47;22.70;60.80
7234;DHT22;3658;47.992;10.158;2022-08-26T14:10:14;22.70;60.80
7234;DHT22;3658;47.992;10.158;2022-08-26T14:12:41;22.70;60.80
7234;DHT22;3658;47.992;10.158;2022-08-26T14:15:10;22.70;60.80
7234;DHT22;3658;47.992;10.158;2022-08-26T14:17:41;22.70;60.80
7234;DHT22;3658;47.992;10.158;2022-08-26T14:20:11;22.70;60.80
7234;DHT22;3658;47.992;10.158;2022-08-26T14:22:40;22.70;60.80
7234;DHT22;3658;47.992;10.158;2022-08-26T14:25:09;22.70;60.80
7234;DHT22;3658;47.992;10.158;2022-08-26T14:27:37;22.70;60.80
7234;DHT22;3658;47.992;10.158;2022-08-26T14:30:05;22.70;60.80
7234;DHT22;3658;47.992;10.158;2022-08-26T14:32:33;22.70;60.80
7234;DHT22;3658;47.992;10.158;2022-08-26T14:35:00;22.70;60.80
7234;DHT22;3658;47.992;10.158;2022-08-26T14:37:29;22.70;60.80
7234;DHT22;3658;47.992;10.158;2022-08-26T14:39:56;22.70;60.80
7234;DHT22;3658;47.992;10.158;2022-08-26T14:42:26;22.70;60.80
7234;DHT22;3658;47.992;10.158;2022-08-26T14:44:56;22.70;61.10
7234;DHT22;3658;47.992;10.158;2022-08-26T14:47:24;22.70;60.80
7234;DHT22;3658;47.992;10.158;2022-08-26T14:49:51;22.70;60.80
7234;DHT22;3658;47.992;10.158;2022-08-26T14:52:18;22.70;60.70
7234;DHT22;3658;47.992;10.158;2022-08-26T14:54:46;22.70;60.80
7234;DHT22;3658;47.992;10.158;2022-08-26T14:57:13;22.70;60.70
7234;DHT22;3658;47.992;10.158;2022-08-26T14:59:42;22.70;60.70
7234;DHT22;3658;47.992;10.158;2022-08-26T15:02:12;22.70;60.70
7234;DHT22;3658;47.992;10.158;2022-08-26T15:04:39;22.70;60.70
7234;DHT22;3658;47.992;10.158;2022-08-26T15:07:07;22.70;60.70
7234;DHT22;3658;47.992;10.158;2022-08-26T15:09:37;22.70;60.70
7234;DHT22;3658;47.992;10.158;2022-08-26T15:12:05;22.70;60.70
7234;DHT22;3658;47.992;10.158;2022-08-26T15:14:32;22.70;60.70
7234;DHT22;3658;47.992;10.158;2022-08-26T15:16:59;22.70;60.70
7234;DHT22;3658;47.992;10.158;2022-08-26T15:19:27;22.70;60.70
7234;DHT22;3658;47.992;10.158;2022-08-26T15:21:54;22.70;60.70
7234;DHT22;3658;47.992;10.158;2022-08-26T15:24:23;22.70;60.70
7234;DHT22;3658;47.992;10.158;2022-08-26T15:26:50;22.70;60.70
7234;DHT22;3658;47.992;10.158;2022-08-26T15:29:19;22.70;60.70
7234;DHT22;3658;47.992;10.158;2022-08-26T15:31:47;22.70;60.70
7234;DHT22;3658;47.992;10.158;2022-08-26T15:34:15;22.70;60.70
7234;DHT22;3658;47.992;10.158;2022-08-26T15:36:42;22.70;60.70
7234;DHT22;3658;47.992;10.158;2022-08-26T15:39:10;22.70;60.70
7234;DHT22;3658;47.992;10.158;2022-08-26T15:41:38;22.70;60.60
7234;DHT22;3658;47.992;10.158;2022-08-26T15:44:07;22.70;60.70
7234;DHT22;3658;47.992;10.158;2022-08-26T15:46:35;22.70;60.60
7234;DHT22;3658;47.992;10.158;2022-08-26T15:49:03;22.70;60.60
7234;DHT22;3658;47.992;10.158;2022-08-26T15:51:32;22.70;60.60
7234;DHT22;3658;47.992;10.158;2022-08-26T15:54:01;22.70;60.60
7234;DHT22;3658;47.992;10.158;2022-08-26T15:56:29;22.70;60.60
7234;DHT22;3658;47.992;10.158;2022-08-26T15:58:57;22.70;60.60
7234;DHT22;3658;47.992;10.158;2022-08-26T16:01:25;22.70;60.60
7234;DHT22;3658;47.992;10.158;2022-08-26T16:03:54;22.70;60.60
7234;DHT22;3658;47.992;10.158;2022-08-26T16:06:23;22.70;60.60
7234;DHT22;3658;47.992;10.158;2022-08-26T16:08:52;22.70;60.70
7234;DHT22;3658;47.992;10.158;2022-08-26T16:11:20;22.70;60.70